FW7213 Weather Reports


Display with metric or nautical units.
time (UTC)temp
F
wind
direction
speed
MPH
gust
MPH
rain 1hr
in
rain 24hr
in
rain mn
in
humidity
%
barometer
mb
20240526222058 87 226 4.0 14.0 0.00 0.00 0.00 66 1011.1
20240526221612 88 173 4.0 9.0 0.00 0.00 0.00 67 1010.8
20240526221102 89 127 3.0 9.0 0.00 0.00 0.00 67 1010.8
20240526220555 89 161 3.0 11.0 0.00 0.00 0.00 62 1010.9
20240526220100 89 200 3.0 13.0 0.00 0.00 0.00 66 1010.7
20240526215558 88 119 4.0 13.0 0.00 0.00 0.00 63 1010.7
20240526215102 88 219 4.0 13.0 0.00 0.00 0.00 66 1010.8
20240526214609 89 236 2.0 10.0 0.00 0.00 0.00 66 1010.8
20240526214057 89 307 4.0 10.0 0.00 0.00 0.00 65 1010.8
20240526213558 90 196 4.0 11.0 0.00 0.00 0.00 61 1010.8
20240526213057 90 241 2.0 11.0 0.00 0.00 0.00 60 1010.7
20240526212558 90 155 4.0 12.0 0.00 0.00 0.00 60 1010.6
20240526212101 90 221 4.0 12.0 0.00 0.00 0.00 61 1010.7
20240526211613 90 189 4.0 10.0 0.00 0.00 0.00 62 1010.7
20240526211057 90 157 3.0 10.0 0.00 0.00 0.00 60 1010.8
20240526210555 90 169 3.0 10.0 0.00 0.00 0.00 60 1010.9
20240526210102 90 262 3.0 9.0 0.00 0.00 0.00 63 1011.0
20240526205558 90 248 4.0 13.0 0.00 0.00 0.00 58 1011.2
20240526205058 90 249 4.0 13.0 0.00 0.00 0.00 60 1011.4
20240526204559 90 182 4.0 12.0 0.00 0.00 0.00 58 1011.4
20240526204058 90 143 3.0 9.0 0.00 0.00 0.00 58 1011.4
20240526203558 90 178 3.0 9.0 0.00 0.00 0.00 60 1011.3
20240526203057 90 169 4.0 9.0 0.00 0.00 0.00 57 1011.4
20240526202554 90 176 3.0 9.0 0.00 0.00 0.00 57 1011.5
20240526202100 90 177 3.0 12.0 0.00 0.00 0.00 61 1011.6
20240526201602 90 217 5.0 12.0 0.00 0.00 0.00 57 1011.7
20240526201058 90 159 4.0 12.0 0.00 0.00 0.00 60 1011.7
20240526200557 90 218 4.0 10.0 0.00 0.00 0.00 61 1011.7
20240526200106 90 184 3.0 11.0 0.00 0.00 0.00 61 1012.0
20240526195558 90 179 4.0 11.0 0.00 0.00 0.00 61 1012.0
20240526195056 90 148 4.0 11.0 0.00 0.00 0.00 58 1012.0
20240526194605 89 161 0.0 5.0 0.00 0.00 0.00 65 1012.0
20240526194058 88 242 1.0 9.0 0.00 0.00 0.00 60 1012.4
20240526193558 89 160 3.0 11.0 0.00 0.00 0.00 62 1012.7
20240526193056 89 206 4.0 11.0 0.00 0.00 0.00 57 1012.8
20240526192602 90 244 3.0 6.0 0.00 0.00 0.00 59 1012.9
20240526192101 90 237 2.0 9.0 0.00 0.00 0.00 62 1012.8
20240526191609 89 224 2.0 10.0 0.00 0.00 0.00 60 1012.7
20240526191058 89 271 4.0 10.0 0.00 0.00 0.00 57 1012.8
20240526190601 90 229 5.0 10.0 0.00 0.00 0.00 57 1012.7
20240526190100 90 281 3.0 8.0 0.00 0.00 0.00 58 1012.8
20240526185555 90 160 3.0 13.0 0.00 0.00 0.00 60 1012.9
20240526185058 89 195 6.0 13.0 0.00 0.00 0.00 57 1012.9
20240526184607 89 212 5.0 12.0 0.00 0.00 0.00 62 1013.0
20240526184058 89 206 4.0 9.0 0.00 0.00 0.00 58 1012.9
20240526183558 90 205 3.0 10.0 0.00 0.00 0.00 58 1013.0
20240526183057 89 233 3.0 11.0 0.00 0.00 0.00 57 1012.9
20240526182558 89 175 2.0 11.0 0.00 0.00 0.00 61 1012.8
20240526182100 89 143 5.0 11.0 0.00 0.00 0.00 56 1012.8
20240526181557 90 217 4.0 11.0 0.00 0.00 0.00 56 1012.9
20240526181102 89 224 3.0 11.0 0.00 0.00 0.00 56 1012.9
20240526180558 89 224 5.0 10.0 0.00 0.00 0.00 56 1013.1
20240526180058 90 122 3.0 10.0 0.00 0.00 0.00 60 1012.9
20240526175557 88 174 5.0 10.0 0.00 0.00 0.00 59 1012.8
20240526175057 88 204 5.0 13.0 0.00 0.00 0.00 58 1012.8
20240526174555 88 114 4.0 13.0 0.00 0.00 0.00 58 1013.0
20240526174057 89 133 2.0 8.0 0.00 0.00 0.00 60 1013.1
20240526173602 88 174 3.0 8.0 0.00 0.00 0.00 62 1013.0
20240526173103 88 207 3.0 8.0 0.00 0.00 0.00 61 1013.0
20240526172556 88 276 3.0 9.0 0.00 0.00 0.00 64 1013.1
20240526172057 87 153 3.0 9.0 0.00 0.00 0.00 63 1013.0
20240526171600 87 195 4.0 9.0 0.00 0.00 0.00 63 1013.1
20240526171058 87 198 3.0 7.0 0.00 0.00 0.00 66 1012.9
20240526170557 87 143 3.0 6.0 0.00 0.00 0.00 68 1013.1
20240526170126 86 259 3.0 11.0 0.00 0.00 0.00 64 1013.3
20240526165556 86 143 2.0 11.0 0.00 0.00 0.00 66 1013.4
20240526165058 85 214 3.0 9.0 0.00 0.00 0.00 66 1013.6
20240526164557 85 167 2.0 7.0 0.00 0.00 0.00 70 1013.8
20240526164057 85 229 2.0 7.0 0.00 0.00 0.00 70 1014.0
20240526163558 85 183 3.0 5.0 0.00 0.00 0.00 68 1014.0
20240526163123 85 181 2.0 5.0 0.00 0.00 0.00 73 1014.0
20240526162557 85 250 2.0 5.0 0.00 0.00 0.00 71 1013.9
20240526162056 85 154 1.0 5.0 0.00 0.00 0.00 72 1014.0
20240526161610 85 236 3.0 7.0 0.00 0.00 0.00 71 1014.0
20240526161056 85 180 2.0 7.0 0.00 0.00 0.00 71 1014.0
20240526160558 85 198 2.0 10.0 0.00 0.00 0.00 73 1013.9
20240526160103 85 280 4.0 10.0 0.00 0.00 0.00 70 1013.9
20240526155556 84 243 1.0 10.0 0.00 0.00 0.00 74 1014.0
20240526155058 84 253 4.0 8.0 0.00 0.00 0.00 70 1013.9
20240526154605 84 141 2.0 6.0 0.00 0.00 0.00 72 1013.8
20240526154057 83 141 1.0 6.0 0.00 0.00 0.00 78 1013.7
20240526153558 83 158 2.0 7.0 0.00 0.00 0.00 74 1013.8
20240526153057 83 250 2.0 7.0 0.00 0.00 0.00 76 1013.7
20240526152557 83 139 3.0 8.0 0.00 0.00 0.00 75 1013.7
20240526152058 83 173 3.0 8.0 0.00 0.00 0.00 73 1013.7
20240526151557 82 162 3.0 8.0 0.00 0.00 0.00 77 1013.7
20240526151057 82 141 3.0 7.0 0.00 0.00 0.00 77 1013.8
20240526150559 82 144 2.0 7.0 0.00 0.00 0.00 79 1013.8
20240526150057 81 158 2.0 6.0 0.00 0.00 0.00 77 1013.8
20240526145555 81 129 2.0 7.0 0.00 0.00 0.00 79 1013.7
20240526145055 81 0 2.0 8.0 0.00 0.00 0.00 80 1013.6
20240526144613 81 236 1.0 9.0 0.00 0.00 0.00 80 1013.6
20240526144058 81 248 2.0 9.0 0.00 0.00 0.00 81 1013.6
20240526143600 81 203 2.0 6.0 0.00 0.00 0.00 84 1013.5
20240526143113 81 193 2.0 6.0 0.00 0.00 0.00 81 1013.5
20240526142557 81 261 2.0 8.0 0.00 0.00 0.00 85 1013.6
20240526142100 80 219 2.0 9.0 0.00 0.00 0.00 85 1013.6
20240526141557 80 215 3.0 9.0 0.00 0.00 0.00 85 1013.6
20240526141057 79 153 2.0 6.0 0.00 0.00 0.00 87 1013.5
20240526140557 78 152 3.0 6.0 0.00 0.00 0.00 92 1013.6
20240526140058 78 139 3.0 6.0 0.00 0.00 0.00 91 1013.5
20240526135558 77 143 2.0 6.0 0.00 0.00 0.00 94 1013.3
20240526135058 77 140 2.0 6.0 0.00 0.00 0.00 95 1013.1
20240526134557 76 108 1.0 6.0 0.00 0.00 0.00 96 1013.3
20240526134057 75 214 3.0 6.0 0.00 0.00 0.00 97 1013.1
20240526133558 75 141 2.0 5.0 0.00 0.00 0.00 97 1013.2
20240526133102 75 138 1.0 5.0 0.00 0.00 0.00 97 1013.3
20240526132557 75 212 2.0 5.0 0.00 0.00 0.00 97 1013.2
20240526132101 75 177 2.0 4.0 0.00 0.00 0.00 97 1013.1
20240526131558 74 146 1.0 3.0 0.00 0.00 0.00 97 1013.1
20240526131058 74 171 1.0 3.0 0.00 0.00 0.00 97 1013.0
20240526130558 74 150 1.0 3.0 0.00 0.00 0.00 97 1012.8
20240526130058 74 142 1.0 3.0 0.00 0.00 0.00 97 1012.8
20240526125556 74 0 1.0 3.0 0.00 0.00 0.00 97 1012.8
20240526125058 73 140 0.0 3.0 0.00 0.00 0.00 97 1012.8
20240526124603 73 140 1.0 3.0 0.00 0.00 0.00 97 1012.6
20240526124056 73 144 1.0 2.0 0.00 0.00 0.00 97 1012.4
20240526123557 73 135 1.0 2.0 0.00 0.00 0.00 97 1012.5
20240526123057 72 0 0.0 2.0 0.00 0.00 0.00 97 1012.7
20240526122557 72 146 0.0 2.0 0.00 0.00 0.00 97 1012.6
20240526122058 72 129 1.0 3.0 0.00 0.00 0.00 97 1012.6
20240526121559 72 141 1.0 3.0 0.00 0.00 0.00 97 1012.5
20240526121057 72 134 0.0 3.0 0.00 0.00 0.00 97 1012.4
20240526120557 71 128 1.0 3.0 0.00 0.00 0.00 97 1012.5
20240526120055 71 155 0.0 3.0 0.00 0.00 0.00 97 1012.5
20240526115555 71 141 0.0 2.0 0.00 0.00 0.00 97 1012.4
20240526115056 71 0 0.0 3.0 0.00 0.00 0.00 97 1012.5
20240526114555 71 137 1.0 3.0 0.00 0.00 0.00 97 1012.5
20240526114058 71 141 1.0 3.0 0.00 0.00 0.00 97 1012.4
20240526113558 71 146 1.0 3.0 0.00 0.00 0.00 97 1012.4
20240526113120 71 139 0.0 1.0 0.00 0.00 0.00 97 1012.4
20240526112557 71 135 0.0 1.0 0.00 0.00 0.00 97 1012.3
20240526112058 71 130 0.0 1.0 0.00 0.00 0.00 97 1012.4
20240526111628 71 0 0.0 1.0 0.00 0.00 0.00 97 1012.5
20240526111057 70 0 0.0 1.0 0.00 0.00 0.00 97 1012.4
20240526110557 70 0 0.0 2.0 0.00 0.00 0.00 97 1012.3
20240526110058 70 0 0.0 3.0 0.00 0.00 0.00 97 1012.3
20240526105558 70 139 0.0 3.0 0.00 0.00 0.00 97 1012.0
20240526105057 70 136 1.0 3.0 0.00 0.00 0.00 97 1012.0
20240526104557 70 141 2.0 3.0 0.00 0.00 0.00 97 1012.0
20240526104100 70 140 2.0 3.0 0.00 0.00 0.00 97 1011.8
20240526103557 70 140 1.0 2.0 0.00 0.00 0.00 97 1011.8
20240526103057 70 139 1.0 2.0 0.00 0.00 0.00 97 1011.8
20240526102559 70 0 0.0 2.0 0.00 0.00 0.00 97 1012.0
20240526102100 70 0 0.0 2.0 0.00 0.00 0.00 97 1012.1
20240526101557 70 142 1.0 2.0 0.00 0.00 0.00 97 1012.1
20240526101058 70 138 0.0 1.0 0.00 0.00 0.00 97 1011.8
20240526100558 70 139 1.0 1.0 0.00 0.00 0.00 97 1011.9
20240526100116 70 139 0.0 0.0 0.00 0.00 0.00 97 1011.9
20240526095601 71 0 0.0 0.0 0.00 0.00 0.00 97 1012.1
20240526095058 71 0 0.0 1.0 0.00 0.00 0.00 97 1012.2
20240526094608 71 0 0.0 1.0 0.00 0.00 0.00 97 1012.3
20240526094059 71 0 0.0 1.0 0.00 0.00 0.00 97 1012.3
20240526093558 71 0 0.0 1.0 0.00 0.00 0.00 97 1012.2
20240526093117 71 0 0.0 1.0 0.00 0.00 0.00 97 1012.3
20240526092558 71 0 0.0 1.0 0.00 0.00 0.00 97 1012.3
20240526092059 71 140 0.0 1.0 0.00 0.00 0.00 97 1012.3
20240526091555 71 140 0.0 1.0 0.00 0.00 0.00 97 1012.1
20240526091100 71 0 0.0 1.0 0.00 0.00 0.00 97 1012.1
20240526090558 71 0 0.0 0.0 0.00 0.00 0.00 97 1012.1
20240526090108 71 0 0.0 1.0 0.00 0.00 0.00 97 1012.0
20240526085557 72 0 0.0 1.0 0.00 0.00 0.00 97 1012.2
20240526085058 71 0 0.0 1.0 0.00 0.00 0.00 97 1012.3
20240526084556 71 0 0.0 1.0 0.00 0.00 0.00 97 1012.3
20240526084058 71 0 0.0 1.0 0.00 0.00 0.00 97 1012.4
20240526083558 72 0 0.0 1.0 0.00 0.00 0.00 97 1012.2
20240526083058 72 0 0.0 1.0 0.00 0.00 0.00 97 1012.0
20240526082556 72 0 0.0 1.0 0.00 0.00 0.00 97 1012.0
20240526082058 72 141 1.0 1.0 0.00 0.00 0.00 97 1012.0
20240526081556 72 154 0.0 0.0 0.00 0.00 0.00 97 1012.1
20240526081057 72 164 0.0 0.0 0.00 0.00 0.00 97 1012.1
20240526080557 72 0 0.0 0.0 0.00 0.00 0.00 97 1012.1
20240526080059 72 0 0.0 1.0 0.00 0.00 0.00 97 1012.1
20240526075559 72 0 0.0 1.0 0.00 0.00 0.00 97 1012.2
20240526075059 72 0 0.0 1.0 0.00 0.00 0.00 97 1012.2
20240526074617 72 0 0.0 3.0 0.00 0.00 0.00 97 1012.2
20240526074057 72 0 0.0 3.0 0.00 0.00 0.00 96 1012.3
20240526073558 72 189 0.0 2.0 0.00 0.00 0.00 96 1012.3
20240526073058 72 235 0.0 2.0 0.00 0.00 0.00 96 1012.1
20240526072558 72 0 0.0 2.0 0.00 0.00 0.00 96 1012.1
20240526072057 72 138 0.0 2.0 0.00 0.00 0.00 96 1012.1
20240526071605 72 141 1.0 2.0 0.00 0.00 0.00 96 1012.2
20240526071057 72 143 0.0 2.0 0.00 0.00 0.00 96 1012.3
20240526070558 72 169 0.0 1.0 0.00 0.00 0.00 96 1012.4
20240526070059 72 0 0.0 1.0 0.00 0.00 0.00 96 1012.5
20240526065614 72 149 1.0 1.0 0.00 0.00 0.00 96 1012.4
20240526065058 72 0 0.0 2.0 0.00 0.00 0.00 96 1012.4
20240526064558 72 0 0.0 2.0 0.00 0.00 0.00 96 1012.5
20240526064102 72 146 0.0 2.0 0.00 0.00 0.00 96 1012.6
20240526063558 72 148 0.0 2.0 0.00 0.00 0.00 96 1012.4
20240526063056 72 150 0.0 2.0 0.00 0.00 0.00 96 1012.4
20240526062557 72 145 0.0 1.0 0.00 0.00 0.00 96 1012.5
20240526062057 72 143 0.0 1.0 0.00 0.00 0.00 95 1012.5
20240526061606 72 143 0.0 1.0 0.00 0.00 0.00 95 1012.6
20240526061058 72 0 0.0 1.0 0.00 0.00 0.00 95 1012.7
20240526060557 72 0 0.0 1.0 0.00 0.00 0.00 95 1012.7
20240526060059 73 143 0.0 1.0 0.00 0.00 0.00 95 1012.7
20240526055600 73 140 0.0 1.0 0.00 0.00 0.00 94 1012.8
20240526055057 73 0 0.0 1.0 0.00 0.00 0.00 94 1012.8
20240526054608 73 136 0.0 1.0 0.00 0.00 0.00 94 1013.0
20240526054058 73 155 0.0 0.0 0.00 0.00 0.00 93 1013.1
20240526053559 73 174 0.0 0.0 0.00 0.00 0.00 93 1013.1
20240526053102 73 0 0.0 0.0 0.00 0.00 0.00 93 1013.1
20240526052557 74 0 0.0 1.0 0.00 0.00 0.00 93 1013.2
20240526052058 74 0 0.0 1.0 0.00 0.00 0.00 93 1013.3
20240526051559 74 221 0.0 0.0 0.00 0.00 0.00 93 1013.2
20240526051058 74 0 0.0 1.0 0.00 0.00 0.00 92 1013.2
20240526050557 74 0 0.0 1.0 0.00 0.00 0.00 92 1013.2
20240526050100 74 223 0.0 1.0 0.00 0.00 0.00 92 1013.2
20240526045557 74 0 0.0 2.0 0.00 0.00 0.00 92 1013.2
20240526045100 74 0 0.0 2.0 0.00 0.00 0.00 92 1013.2
20240526044557 74 0 0.0 2.0 0.00 0.00 0.00 91 1013.3
20240526044058 75 136 0.0 1.0 0.00 0.00 0.00 91 1013.3
20240526043557 75 0 0.0 2.0 0.00 0.00 0.00 91 1013.5
20240526043055 75 0 0.0 2.0 0.00 0.00 0.00 91 1013.5
20240526042600 75 163 0.0 2.0 0.00 0.00 0.00 91 1013.3
20240526042057 75 146 0.0 2.0 0.00 0.00 0.00 91 1013.2
20240526041558 75 0 0.0 2.0 0.00 0.00 0.00 90 1013.2
20240526041059 75 0 0.0 0.0 0.00 0.00 0.00 90 1013.1
20240526040558 75 0 0.0 0.0 0.00 0.00 0.00 90 1013.3
20240526040057 75 0 0.0 0.0 0.00 0.00 0.00 90 1013.4
20240526035600 75 0 0.0 0.0 0.00 0.00 0.00 90 1013.3
20240526035059 75 0 0.0 0.0 0.00 0.00 0.00 89 1013.5
20240526034556 75 0 0.0 0.0 0.00 0.00 0.00 89 1013.6
20240526034057 75 0 0.0 0.0 0.00 0.00 0.00 89 1013.4
20240526033559 75 0 0.0 0.0 0.00 0.00 0.00 88 1013.4
20240526033121 76 0 0.0 2.0 0.00 0.00 0.00 88 1013.3
20240526032601 76 0 0.0 2.0 0.00 0.00 0.00 88 1013.3
20240526032058 76 0 0.0 3.0 0.00 0.00 0.00 88 1013.2
20240526031656 76 160 1.0 3.0 0.00 0.00 0.00 87 1013.1
20240526031058 76 141 1.0 3.0 0.00 0.00 0.00 87 1013.2
20240526030558 76 145 1.0 3.0 0.00 0.00 0.00 87 1013.0
20240526030100 76 135 1.0 3.0 0.00 0.00 0.00 87 1013.0
20240526025558 76 142 1.0 3.0 0.00 0.00 0.00 86 1012.9
20240526025058 76 139 1.0 2.0 0.00 0.00 0.00 86 1012.8
20240526024600 76 139 1.0 2.0 0.00 0.00 0.00 86 1012.8
20240526024058 76 141 1.0 2.0 0.00 0.00 0.00 86 1012.8
20240526023558 76 134 0.0 2.0 0.00 0.00 0.00 86 1012.6
20240526023058 76 146 1.0 2.0 0.00 0.00 0.00 85 1012.4
20240526022558 76 134 1.0 2.0 0.00 0.00 0.00 85 1012.3
20240526022059 76 136 1.0 2.0 0.00 0.00 0.00 84 1012.4
20240526021558 76 139 0.0 1.0 0.00 0.00 0.00 84 1012.4
20240526021058 76 141 0.0 1.0 0.00 0.00 0.00 87 1012.3
20240526020558 76 145 0.0 1.0 0.00 0.00 0.00 85 1012.3
20240526020059 76 136 0.0 1.0 0.00 0.00 0.00 87 1012.1
20240526015559 76 140 0.0 1.0 0.00 0.00 0.00 87 1012.3
20240526015101 76 0 0.0 1.0 0.00 0.00 0.00 87 1012.1
20240526014558 76 142 0.0 1.0 0.00 0.00 0.00 87 1012.0
20240526014100 76 142 0.0 1.0 0.00 0.00 0.00 86 1012.0
20240526013558 76 146 0.0 2.0 0.00 0.00 0.00 87 1011.9
20240526013057 76 141 0.0 2.0 0.00 0.00 0.00 87 1011.9
20240526012557 76 143 0.0 2.0 0.00 0.00 0.00 86 1011.8
20240526012058 76 146 1.0 2.0 0.00 0.00 0.00 87 1011.8
20240526011557 76 145 1.0 1.0 0.00 0.00 0.00 87 1011.7
20240526011058 76 131 0.0 1.0 0.00 0.00 0.00 88 1011.7
20240526010557 76 0 0.0 1.0 0.00 0.00 0.00 87 1011.8
20240526010056 76 0 0.0 1.0 0.00 0.00 0.00 85 1011.7
20240526005559 77 0 0.0 0.0 0.00 0.00 0.00 85 1011.7
20240526005100 77 0 0.0 0.0 0.00 0.00 0.00 85 1011.7
20240526004557 77 0 0.0 0.0 0.00 0.00 0.00 84 1011.7
20240526004058 77 0 0.0 0.0 0.00 0.00 0.00 83 1011.7
20240526003558 78 0 0.0 0.0 0.00 0.00 0.00 83 1011.8
20240526003122 78 0 0.0 0.0 0.00 0.00 0.00 83 1011.7
20240526002559 78 0 0.0 0.0 0.00 0.00 0.00 83 1011.6
20240526002058 79 0 0.0 0.0 0.00 0.00 0.00 82 1011.6
20240526001603 79 0 0.0 0.0 0.00 0.00 0.00 82 1011.7
20240526001059 80 0 0.0 0.0 0.00 0.00 0.00 79 1011.6
20240526000558 80 0 0.0 0.0 0.00 0.00 0.00 79 1011.9
20240526000103 80 0 0.0 0.0 0.00 0.00 0.00 78 1011.9
20240525235558 80 0 0.0 0.0 0.00 0.00 0.00 78 1011.9
20240525235058 80 0 0.0 0.0 0.00 0.00 0.00 78 1012.0
20240525234614 80 0 0.0 1.0 0.00 0.00 0.00 79 1012.0
20240525234057 80 0 0.0 1.0 0.00 0.00 0.00 81 1012.0
20240525233602 80 0 0.0 1.0 0.00 0.00 0.00 76 1012.0
20240525233059 81 0 0.0 1.0 0.00 0.00 0.00 78 1011.9
20240525232557 81 0 0.0 2.0 0.00 0.00 0.00 74 1011.9
20240525232058 81 0 0.0 2.0 0.00 0.00 0.00 74 1011.9
20240525231602 81 71 0.0 3.0 0.00 0.00 0.00 78 1011.7
20240525231101 82 0 0.0 3.0 0.00 0.00 0.00 78 1011.9
20240525230557 82 150 0.0 3.0 0.00 0.00 0.00 76 1012.1
20240525230102 82 84 0.0 3.0 0.00 0.00 0.00 75 1011.9
20240525225557 82 108 1.0 3.0 0.00 0.00 0.00 73 1012.0
20240525225058 82 0 0.0 3.0 0.00 0.00 0.00 74 1012.1
20240525224556 81 86 1.0 3.0 0.00 0.00 0.00 74 1011.8
20240525224100 81 0 0.0 3.0 0.00 0.00 0.00 74 1011.8
20240525223559 81 99 0.0 5.0 0.00 0.00 0.00 77 1011.9
20240525223056 81 114 1.0 5.0 0.00 0.00 0.00 74 1012.0
20240525222557 80 146 1.0 4.0 0.00 0.00 0.00 75 1012.1